createdAt,value
2019-03-25T00:00:24.600Z,74.91
2019-03-25T00:01:24.574Z,73.78
2019-03-25T00:02:24.574Z,73.98
2019-03-25T00:03:24.550Z,73.98
2019-03-25T00:04:24.586Z,74.19
2019-03-25T00:05:24.537Z,74.29
2019-03-25T00:06:24.520Z,74.08
2019-03-25T00:07:24.530Z,73.88
2019-03-25T00:08:24.530Z,74.19
2019-03-25T00:09:24.500Z,73.88
2019-03-25T00:10:24.540Z,73.78
2019-03-25T00:11:24.462Z,74.29
2019-03-25T00:12:24.450Z,73.36
2019-03-25T00:13:24.450Z,73.19
2019-03-25T00:14:24.474Z,73.81
2019-03-25T00:15:24.414Z,73.57
2019-03-25T00:16:24.420Z,73.57
2019-03-25T00:17:24.402Z,73.60
2019-03-25T00:18:24.390Z,72.58
2019-03-25T00:19:24.380Z,72.58
2019-03-25T00:20:24.390Z,72.58
2019-03-25T00:21:24.363Z,72.47
2019-03-25T00:22:24.391Z,72.88
2019-03-25T00:23:24.343Z,72.88
2019-03-25T00:24:37.907Z,73.16
2019-03-25T00:25:24.318Z,72.96
2019-03-25T00:26:24.306Z,73.05
2019-03-25T00:27:24.290Z,72.58
2019-03-25T00:28:24.306Z,72.78
2019-03-25T00:29:24.279Z,73.05
2019-03-25T00:30:24.263Z,72.85
2019-03-25T00:31:24.249Z,73.16
2019-03-25T00:32:24.249Z,72.16
2019-03-25T00:33:24.253Z,72.16
2019-03-25T00:34:24.214Z,71.44
2019-03-25T00:35:24.207Z,70.92
2019-03-25T00:36:24.201Z,70.92
2019-03-25T00:37:24.179Z,70.20
2019-03-25T00:38:24.179Z,70.72
2019-03-25T00:39:24.190Z,70.20
2019-03-25T00:40:24.144Z,70.31
2019-03-25T00:41:24.182Z,69.89
2019-03-25T00:42:24.145Z,70.10
2019-03-25T00:43:24.116Z,68.66
2019-03-25T00:44:24.097Z,68.66
2019-03-25T00:45:24.115Z,68.45
2019-03-25T00:46:24.078Z,67.52
2019-03-25T00:47:24.071Z,67.73
2019-03-25T00:48:24.064Z,67.73
2019-03-25T00:49:24.067Z,67.83
2019-03-25T00:50:24.042Z,66.60
2019-03-25T00:51:24.024Z,66.60
2019-03-25T00:52:24.020Z,66.39
2019-03-25T00:53:24.010Z,66.39
2019-03-25T00:54:24.017Z,66.70
2019-03-25T00:55:23.978Z,65.67
2019-03-25T00:56:23.991Z,66.18
2019-03-25T00:57:23.965Z,66.08
2019-03-25T00:58:23.944Z,65.15
2019-03-25T00:59:23.963Z,65.67
2019-03-25T01:00:23.934Z,65.25
2019-03-25T01:01:23.930Z,65.59
2019-03-25T01:02:23.917Z,65.05
2019-03-25T01:03:23.899Z,65.05
2019-03-25T01:04:23.895Z,64.36
2019-03-25T01:05:23.977Z,64.25
2019-03-25T01:06:23.865Z,63.95
2019-03-25T01:07:23.868Z,64.25
2019-03-25T01:08:23.850Z,63.95
2019-03-25T01:09:23.833Z,64.25
2019-03-25T01:10:23.842Z,64.46
2019-03-25T01:11:23.823Z,64.25
2019-03-25T01:12:26.501Z,64.77
2019-03-25T01:13:23.806Z,64.25
2019-03-25T01:14:23.783Z,64.25
2019-03-25T01:15:23.771Z,64.36
2019-03-25T01:16:23.759Z,64.56
2019-03-25T01:17:23.751Z,64.39
2019-03-25T01:18:23.745Z,63.64
2019-03-25T01:19:23.735Z,63.56
2019-03-25T01:20:23.846Z,63.12
2019-03-25T01:21:23.702Z,63.46
2019-03-25T01:22:23.707Z,63.12
2019-03-25T01:23:23.689Z,62.94
2019-03-25T01:24:23.688Z,62.29
2019-03-25T01:25:23.677Z,63.25
2019-03-25T01:26:23.644Z,62.08
2019-03-25T01:27:23.643Z,61.80
2019-03-25T01:28:23.664Z,61.50
2019-03-25T01:29:23.607Z,61.60
2019-03-25T01:30:23.621Z,61.60
2019-03-25T01:31:23.613Z,61.19
2019-03-25T01:32:23.579Z,61.50
2019-03-25T01:33:23.627Z,61.50
2019-03-25T01:34:23.577Z,61.60
2019-03-25T01:35:23.555Z,61.94
2019-03-25T01:36:23.529Z,61.40
2019-03-25T01:37:23.523Z,61.80
2019-03-25T01:38:23.995Z,61.83
2019-03-25T01:39:23.505Z,61.94
2019-03-25T01:40:23.528Z,61.94
2019-03-25T01:41:23.482Z,61.73
2019-03-25T01:42:23.489Z,61.73
2019-03-25T01:43:23.467Z,61.73
2019-03-25T01:44:23.449Z,62.15
2019-03-25T01:45:23.454Z,62.87
2019-03-25T01:46:23.452Z,62.76
2019-03-25T01:47:23.985Z,61.94
2019-03-25T01:48:23.447Z,62.87
2019-03-25T01:49:23.399Z,61.94
2019-03-25T01:50:23.404Z,61.70
2019-03-25T01:51:23.375Z,61.63
2019-03-25T01:52:23.385Z,62.12
2019-03-25T01:53:23.373Z,59.77
2019-03-25T01:54:23.345Z,60.08
2019-03-25T01:55:23.368Z,60.49
2019-03-25T01:56:23.328Z,60.49
2019-03-25T01:57:23.313Z,60.60
2019-03-25T01:58:23.367Z,60.60
2019-03-25T01:59:23.305Z,60.28
2019-03-25T02:00:23.279Z,60.49
2019-03-25T02:01:25.983Z,61.01
2019-03-25T02:02:23.263Z,60.80
2019-03-25T02:03:23.247Z,60.60
2019-03-25T02:04:23.278Z,59.98
2019-03-25T02:05:23.245Z,60.49
2019-03-25T02:06:23.241Z,60.18
2019-03-25T02:07:23.233Z,60.49
2019-03-25T02:08:23.189Z,60.18
2019-03-25T02:09:23.177Z,60.49
2019-03-25T02:10:23.182Z,59.98
2019-03-25T02:11:23.161Z,61.11
2019-03-25T02:12:25.992Z,60.70
2019-03-25T02:13:23.173Z,60.08
2019-03-25T02:14:23.117Z,59.88
2019-03-25T02:15:23.111Z,60.08
2019-03-25T02:16:23.105Z,59.98
2019-03-25T02:17:23.095Z,60.49
2019-03-25T02:18:23.111Z,60.08
2019-03-25T02:19:23.109Z,60.70
2019-03-25T02:20:26.708Z,60.80
2019-03-25T02:21:23.059Z,60.49
2019-03-25T02:22:23.047Z,60.93
2019-03-25T02:23:23.023Z,60.91
2019-03-25T02:24:23.037Z,61.42
2019-03-25T02:25:25.679Z,61.83
2019-03-25T02:26:25.479Z,61.94
2019-03-25T02:27:22.999Z,62.17
2019-03-25T02:29:22.011Z,61.94
2019-03-25T02:30:22.972Z,61.76
2019-03-25T02:31:22.950Z,61.76
2019-03-25T02:32:22.950Z,61.76
2019-03-25T02:33:22.945Z,62.59
2019-03-25T02:34:22.918Z,61.76
2019-03-25T02:35:22.908Z,62.79
2019-03-25T02:36:23.471Z,61.87
2019-03-25T02:37:22.883Z,62.79
2019-03-25T02:38:22.879Z,62.79
2019-03-25T02:39:22.858Z,62.66
2019-03-25T02:40:22.884Z,62.76
2019-03-25T02:41:22.852Z,62.97
2019-03-25T02:42:25.474Z,61.94
2019-03-25T02:43:22.814Z,62.25
2019-03-25T02:44:22.819Z,61.83
2019-03-25T02:45:22.888Z,61.83
2019-03-25T02:46:26.041Z,61.63
2019-03-25T02:47:22.786Z,61.83
2019-03-25T02:48:25.476Z,62.76
2019-03-25T02:49:22.763Z,62.87
2019-03-25T02:50:22.757Z,61.94
2019-03-25T02:51:22.720Z,61.73
2019-03-25T02:52:22.730Z,61.63
2019-03-25T02:53:22.715Z,61.73
2019-03-25T02:54:22.704Z,61.83
2019-03-25T02:56:21.694Z,62.55
2019-03-25T02:57:22.687Z,62.79
2019-03-25T02:58:22.666Z,62.76
2019-03-25T02:59:22.664Z,63.21
2019-03-25T03:00:22.626Z,63.42
2019-03-25T03:01:22.618Z,62.69
2019-03-25T03:02:22.622Z,63.10
2019-03-25T03:03:22.613Z,63.62
2019-03-25T03:04:22.604Z,63.21
2019-03-25T03:05:22.584Z,63.42
2019-03-25T03:06:22.580Z,64.24
2019-03-25T03:07:22.569Z,64.03
2019-03-25T03:08:22.551Z,64.76
2019-03-25T03:09:22.627Z,64.14
2019-03-25T03:10:22.534Z,64.14
2019-03-25T03:11:22.555Z,62.69
2019-03-25T03:12:22.507Z,62.90
2019-03-25T03:13:22.502Z,62.76
2019-03-25T03:14:22.486Z,62.59
2019-03-25T03:15:22.483Z,62.79
2019-03-25T03:16:22.458Z,63.00
2019-03-25T03:17:22.462Z,63.42
2019-03-25T03:18:22.434Z,63.10
2019-03-25T03:19:22.467Z,63.00
2019-03-25T03:20:22.416Z,63.13
2019-03-25T03:21:22.418Z,63.23
2019-03-25T03:22:22.398Z,63.44
2019-03-25T03:23:22.389Z,62.72
2019-03-25T03:24:22.415Z,64.09
2019-03-25T03:25:22.359Z,64.20
2019-03-25T03:26:22.378Z,63.65
2019-03-25T03:27:22.335Z,63.78
2019-03-25T03:28:22.349Z,63.03
2019-03-25T03:29:22.332Z,62.95
2019-03-25T03:30:24.973Z,63.06
2019-03-25T03:31:22.298Z,62.82
2019-03-25T03:32:22.276Z,62.82
2019-03-25T03:33:22.281Z,62.72
2019-03-25T03:34:22.278Z,63.03
2019-03-25T03:35:22.308Z,62.85
2019-03-25T03:36:22.253Z,62.75
2019-03-25T03:37:22.228Z,62.30
2019-03-25T03:38:22.238Z,62.54
2019-03-25T03:39:22.207Z,62.02
2019-03-25T03:40:22.233Z,62.54
2019-03-25T03:41:22.968Z,62.54
2019-03-25T03:42:22.178Z,62.85
2019-03-25T03:43:22.160Z,62.44
2019-03-25T03:44:22.155Z,62.54
2019-03-25T03:45:22.159Z,61.71
2019-03-25T03:46:22.139Z,61.61
2019-03-25T03:47:22.126Z,62.85
2019-03-25T03:48:22.110Z,62.02
2019-03-25T03:49:22.102Z,61.71
2019-03-25T03:50:22.105Z,61.71
2019-03-25T03:51:22.086Z,61.61
2019-03-25T03:52:22.070Z,61.51
2019-03-25T03:53:22.055Z,61.61
2019-03-25T03:54:22.048Z,62.02
2019-03-25T03:55:22.036Z,61.92
2019-03-25T03:56:22.047Z,61.92
2019-03-25T03:57:22.010Z,61.71
2019-03-25T03:58:22.013Z,61.61
2019-03-25T03:59:22.014Z,61.71
2019-03-25T04:00:21.980Z,61.82
2019-03-25T04:01:24.449Z,61.61
2019-03-25T04:02:21.963Z,62.13
2019-03-25T04:03:21.943Z,62.44
2019-03-25T04:04:21.934Z,62.02
2019-03-25T04:05:21.974Z,61.92
2019-03-25T04:06:21.914Z,61.61
2019-03-25T04:07:21.909Z,62.13
2019-03-25T04:08:21.921Z,62.02
2019-03-25T04:09:21.919Z,62.02
2019-03-25T04:10:21.901Z,62.02
2019-03-25T04:11:21.858Z,62.30
2019-03-25T04:12:21.864Z,61.71
2019-03-25T04:13:24.449Z,61.82
2019-03-25T04:14:21.822Z,61.71
2019-03-25T04:15:21.845Z,61.82
2019-03-25T04:16:21.813Z,62.23
2019-03-25T04:17:21.812Z,61.71
2019-03-25T04:18:21.785Z,62.02
2019-03-25T04:19:21.820Z,62.23
2019-03-25T04:20:21.753Z,62.20
2019-03-25T04:21:21.767Z,62.23
2019-03-25T04:22:21.757Z,62.02
2019-03-25T04:23:21.729Z,61.69
2019-03-25T04:24:21.744Z,62.34
2019-03-25T04:25:21.705Z,61.82
2019-03-25T04:26:28.339Z,61.82
2019-03-25T04:27:21.708Z,61.92
2019-03-25T04:28:21.673Z,61.89
2019-03-25T04:29:21.670Z,61.79
2019-03-25T04:30:21.671Z,61.82
2019-03-25T04:31:21.647Z,62.20
2019-03-25T04:32:21.630Z,61.82
2019-03-25T04:33:21.642Z,62.72
2019-03-25T04:34:21.609Z,62.75
2019-03-25T04:35:21.600Z,62.62
2019-03-25T04:36:21.599Z,62.44
2019-03-25T04:37:21.577Z,63.03
2019-03-25T04:38:21.568Z,63.37
2019-03-25T04:39:21.568Z,63.23
2019-03-25T04:40:21.578Z,63.03
2019-03-25T04:41:21.535Z,63.78
2019-03-25T04:42:21.521Z,63.65
2019-03-25T04:43:21.511Z,63.78
2019-03-25T04:44:21.516Z,63.44
2019-03-25T04:45:21.502Z,63.68
2019-03-25T04:46:21.508Z,63.65
2019-03-25T04:47:21.480Z,64.51
2019-03-25T04:48:21.456Z,64.48
2019-03-25T04:49:21.452Z,64.71
2019-03-25T04:50:21.436Z,64.51
2019-03-25T04:51:23.933Z,64.81
2019-03-25T04:52:23.931Z,64.48
2019-03-25T04:53:21.398Z,64.48
2019-03-25T04:54:21.391Z,64.37
2019-03-25T04:55:21.389Z,64.37
2019-03-25T04:56:21.379Z,64.58
2019-03-25T04:57:21.358Z,64.58
2019-03-25T04:58:21.358Z,64.27
2019-03-25T04:59:21.338Z,64.20
2019-03-25T05:00:21.335Z,64.30
2019-03-25T05:01:21.350Z,65.09
2019-03-25T05:02:21.322Z,64.48
2019-03-25T05:03:21.317Z,64.68
2019-03-25T05:04:21.313Z,64.71
2019-03-25T05:05:21.278Z,64.40
2019-03-25T05:06:21.275Z,64.92
2019-03-25T05:07:21.282Z,64.71
2019-03-25T05:08:21.263Z,64.81
2019-03-25T05:09:21.251Z,64.40
2019-03-25T05:10:21.224Z,64.71
2019-03-25T05:11:30.317Z,65.33
2019-03-25T05:12:21.204Z,65.12
2019-03-25T05:13:21.204Z,64.71
2019-03-25T05:14:21.178Z,64.30
2019-03-25T05:15:21.160Z,65.33
2019-03-25T05:16:21.158Z,65.02
2019-03-25T05:17:21.215Z,65.44
2019-03-25T05:18:21.134Z,65.33
2019-03-25T05:19:21.154Z,65.54
2019-03-25T05:20:21.117Z,65.85
2019-03-25T05:21:21.116Z,65.44
2019-03-25T05:22:21.104Z,65.23
2019-03-25T05:23:21.083Z,65.23
2019-03-25T05:24:21.060Z,64.51
2019-03-25T05:25:21.080Z,66.06
2019-03-25T05:26:21.048Z,64.92
2019-03-25T05:27:21.046Z,65.44
2019-03-25T05:28:21.023Z,65.36
2019-03-25T05:29:21.019Z,64.32
2019-03-25T05:30:23.024Z,64.51
2019-03-25T05:31:21.033Z,64.92
2019-03-25T05:32:20.984Z,64.51
2019-03-25T05:33:20.969Z,64.81
2019-03-25T05:34:20.962Z,64.84
2019-03-25T05:35:20.993Z,64.43
2019-03-25T05:36:20.942Z,64.74
2019-03-25T05:37:20.929Z,64.53
2019-03-25T05:38:20.918Z,64.32
2019-03-25T05:39:20.906Z,64.53
2019-03-25T05:40:20.895Z,64.23
2019-03-25T05:41:20.896Z,63.57
2019-03-25T05:42:20.888Z,63.71
2019-03-25T05:43:21.233Z,63.19
2019-03-25T05:44:20.862Z,63.81
2019-03-25T05:45:20.860Z,64.43
2019-03-25T05:46:20.827Z,63.60
2019-03-25T05:47:20.840Z,63.81
2019-03-25T05:48:21.446Z,63.68
2019-03-25T05:49:20.810Z,63.40
2019-03-25T05:50:20.800Z,63.16
2019-03-25T05:51:20.804Z,62.85
2019-03-25T05:52:20.789Z,62.85
2019-03-25T05:53:20.763Z,63.68
2019-03-25T05:54:20.750Z,63.06
2019-03-25T05:55:20.740Z,62.75
2019-03-25T05:56:20.734Z,62.85
2019-03-25T05:57:20.738Z,63.68
2019-03-25T05:58:20.704Z,63.47
2019-03-25T05:59:20.698Z,63.40
2019-03-25T06:00:20.686Z,63.26
2019-03-25T06:01:20.683Z,62.75
2019-03-25T06:02:20.674Z,63.60
2019-03-25T06:03:20.678Z,63.16
2019-03-25T06:04:20.631Z,62.46
2019-03-25T06:05:23.409Z,63.06
2019-03-25T06:06:20.608Z,63.09
2019-03-25T06:07:20.622Z,63.19
2019-03-25T06:08:20.595Z,63.29
2019-03-25T06:09:20.597Z,63.16
2019-03-25T06:10:20.614Z,62.88
2019-03-25T06:11:20.562Z,61.82
2019-03-25T06:12:20.552Z,62.57
2019-03-25T06:13:20.548Z,61.85
2019-03-25T06:14:20.536Z,62.23
2019-03-25T06:15:20.548Z,62.54
2019-03-25T06:16:20.547Z,61.92
2019-03-25T06:17:20.502Z,61.92
2019-03-25T06:18:23.412Z,62.13
2019-03-25T06:19:20.478Z,61.40
2019-03-25T06:20:20.465Z,62.23
2019-03-25T06:21:20.472Z,61.51
2019-03-25T06:23:19.478Z,61.40
2019-03-25T06:24:20.421Z,61.48
2019-03-25T06:25:20.432Z,60.78
2019-03-25T06:26:20.389Z,60.86
2019-03-25T06:27:20.389Z,60.14
2019-03-25T06:28:20.376Z,61.40
2019-03-25T06:29:20.378Z,60.34
2019-03-25T06:30:20.370Z,60.24
2019-03-25T06:31:20.349Z,60.55
2019-03-25T06:32:20.334Z,60.03
2019-03-25T06:33:20.337Z,60.34
2019-03-25T06:34:22.913Z,60.03
2019-03-25T06:35:20.300Z,59.69
2019-03-25T06:36:20.456Z,58.87
2019-03-25T06:37:20.326Z,58.25
2019-03-25T06:38:20.268Z,58.04
2019-03-25T06:39:20.256Z,58.66
2019-03-25T06:40:20.247Z,58.25
2019-03-25T06:41:20.271Z,58.25
2019-03-25T06:42:20.247Z,57.63
2019-03-25T06:43:20.221Z,57.63
2019-03-25T06:44:20.336Z,57.73
2019-03-25T06:45:22.896Z,57.53
2019-03-25T06:46:22.226Z,57.73
2019-03-25T06:47:20.175Z,56.16
2019-03-25T06:49:19.895Z,56.88
2019-03-25T06:50:20.134Z,56.26
2019-03-25T06:51:20.148Z,56.37
2019-03-25T06:52:20.120Z,56.05
2019-03-25T06:53:20.106Z,56.44
2019-03-25T06:54:20.092Z,55.74
2019-03-25T06:55:20.079Z,56.26
2019-03-25T06:56:20.095Z,55.85
2019-03-25T06:57:25.437Z,56.05
2019-03-25T06:58:20.162Z,56.57
2019-03-25T06:59:20.142Z,56.57
2019-03-25T07:01:19.128Z,56.16
2019-03-25T07:02:22.937Z,56.57
2019-03-25T07:03:20.096Z,56.57
2019-03-25T07:04:20.047Z,56.57
2019-03-25T07:05:19.988Z,56.46
2019-03-25T07:06:20.004Z,56.37
2019-03-25T07:07:19.985Z,56.98
2019-03-25T07:08:19.991Z,56.60
2019-03-25T07:09:19.971Z,56.57
2019-03-25T07:10:25.901Z,56.88
2019-03-25T07:11:19.921Z,56.37
2019-03-25T07:12:19.925Z,56.88
2019-03-25T07:13:19.903Z,55.74
2019-03-25T07:14:19.879Z,56.16
2019-03-25T07:15:19.874Z,55.46
2019-03-25T07:16:19.884Z,56.16
2019-03-25T07:17:19.849Z,55.43
2019-03-25T07:18:19.846Z,55.43
2019-03-25T07:19:19.827Z,55.87
2019-03-25T07:20:19.816Z,55.56
2019-03-25T07:21:20.630Z,56.16
2019-03-25T07:22:19.819Z,55.74
2019-03-25T07:24:18.766Z,56.05
2019-03-25T07:25:20.402Z,55.74
2019-03-25T07:26:19.766Z,55.82
2019-03-25T07:27:19.919Z,56.13
2019-03-25T07:28:19.736Z,55.30
2019-03-25T07:29:19.712Z,55.82
2019-03-25T07:30:19.707Z,55.72
2019-03-25T07:31:19.820Z,56.34
2019-03-25T07:32:19.786Z,55.72
2019-03-25T07:33:22.508Z,56.03
2019-03-25T07:34:19.683Z,56.34
2019-03-25T07:35:19.688Z,56.54
2019-03-25T07:36:22.410Z,57.47
2019-03-25T07:37:23.686Z,57.70
2019-03-25T07:38:19.624Z,58.84
2019-03-25T07:39:19.606Z,58.64
2019-03-25T07:40:19.596Z,59.98
2019-03-25T07:41:19.623Z,61.87
2019-03-25T07:42:19.602Z,63.10
2019-03-25T07:43:19.684Z,64.37
2019-03-25T07:44:22.577Z,65.85
2019-03-25T07:45:19.550Z,66.88
2019-03-25T07:46:19.525Z,66.78
2019-03-25T07:47:21.491Z,67.19
2019-03-25T07:48:19.566Z,67.71
2019-03-25T07:49:19.508Z,67.30
2019-03-25T07:50:19.501Z,68.12
2019-03-25T07:51:19.552Z,68.12
2019-03-25T07:52:19.486Z,68.02
2019-03-25T07:53:19.475Z,68.43
2019-03-25T07:54:19.456Z,67.82
2019-03-25T07:55:19.450Z,68.54
2019-03-25T07:56:19.468Z,68.12
2019-03-25T07:57:19.406Z,67.71
2019-03-25T07:58:19.401Z,67.91
2019-03-25T07:59:20.258Z,68.02
2019-03-25T08:00:19.376Z,67.71
2019-03-25T08:01:19.366Z,67.61
2019-03-25T08:02:19.381Z,68.33
2019-03-25T08:03:19.346Z,67.61
2019-03-25T08:04:19.361Z,67.16
2019-03-25T08:05:19.367Z,67.61
2019-03-25T08:06:29.884Z,67.16
2019-03-25T08:07:19.881Z,66.64
2019-03-25T08:08:19.310Z,66.96
2019-03-25T08:09:19.286Z,66.13
2019-03-25T08:10:19.284Z,65.51
2019-03-25T08:11:21.258Z,66.13
2019-03-25T08:12:19.241Z,66.33
2019-03-25T08:13:22.027Z,67.16
2019-03-25T08:14:19.241Z,66.75
2019-03-25T08:15:19.211Z,67.06
2019-03-25T08:16:19.387Z,66.54
2019-03-25T08:17:19.195Z,67.16
2019-03-25T08:18:19.175Z,67.27
2019-03-25T08:19:19.176Z,66.64
2019-03-25T08:20:19.161Z,68.09
2019-03-25T08:21:19.147Z,67.03
2019-03-25T08:22:19.253Z,66.51
2019-03-25T08:23:19.129Z,67.16
2019-03-25T08:24:19.109Z,67.16
2019-03-25T08:25:19.144Z,66.64
2019-03-25T08:26:19.222Z,66.64
2019-03-25T08:27:19.172Z,67.78
2019-03-25T08:28:19.065Z,67.16
2019-03-25T08:29:19.055Z,68.71
2019-03-25T08:30:19.117Z,69.74
2019-03-25T08:31:19.039Z,70.78
2019-03-25T08:32:19.158Z,71.64
2019-03-25T08:33:19.012Z,72.05
2019-03-25T08:34:21.882Z,73.94
2019-03-25T08:35:18.999Z,74.57
2019-03-25T08:36:18.978Z,74.57
2019-03-25T08:37:18.963Z,74.67
2019-03-25T08:38:18.993Z,76.67
2019-03-25T08:39:19.999Z,76.57
2019-03-25T08:40:18.999Z,76.05
2019-03-25T08:41:19.102Z,76.29
2019-03-25T08:42:18.979Z,76.19
2019-03-25T08:43:18.898Z,76.91
2019-03-25T08:44:20.548Z,77.22
2019-03-25T08:45:18.882Z,77.53
2019-03-25T08:46:18.886Z,78.99
2019-03-25T08:47:19.029Z,77.84
2019-03-25T08:48:18.851Z,77.26
2019-03-25T08:49:18.844Z,77.33
2019-03-25T08:50:18.826Z,77.67
2019-03-25T08:51:18.856Z,77.47
2019-03-25T08:52:18.817Z,78.30
2019-03-25T08:53:18.790Z,78.09
2019-03-25T08:54:18.994Z,77.67
2019-03-25T08:55:18.960Z,78.50
2019-03-25T08:56:18.767Z,78.81
2019-03-25T08:57:18.799Z,80.26
2019-03-25T08:58:18.757Z,78.50
2019-03-25T08:59:19.392Z,79.13
2019-03-25T09:00:19.006Z,79.02
2019-03-25T09:01:18.711Z,79.02
2019-03-25T09:02:18.703Z,79.33
2019-03-25T09:03:18.709Z,79.13
2019-03-25T09:04:18.688Z,79.64
2019-03-25T09:05:18.699Z,79.74
2019-03-25T09:06:18.652Z,80.26
2019-03-25T09:07:18.896Z,80.88
2019-03-25T09:08:18.864Z,78.96
2019-03-25T09:09:18.629Z,79.54
2019-03-25T09:10:21.356Z,79.13
2019-03-25T09:11:21.357Z,79.23
2019-03-25T09:12:18.600Z,79.23
2019-03-25T09:13:21.893Z,79.23
2019-03-25T09:14:18.571Z,78.50
2019-03-25T09:15:18.564Z,78.50
2019-03-25T09:16:18.585Z,77.67
2019-03-25T09:17:18.558Z,78.19
2019-03-25T09:18:18.544Z,78.61
2019-03-25T09:19:18.511Z,77.26
2019-03-25T09:20:18.502Z,77.36
2019-03-25T09:21:19.352Z,76.84
2019-03-25T09:22:18.553Z,78.09
2019-03-25T09:23:18.473Z,78.78
2019-03-25T09:24:18.522Z,77.43
2019-03-25T09:25:18.473Z,76.09
2019-03-25T09:26:18.485Z,75.78
2019-03-25T09:27:18.436Z,76.09
2019-03-25T09:28:24.242Z,75.98
2019-03-25T09:29:18.402Z,75.67
2019-03-25T09:30:19.344Z,76.50
2019-03-25T09:31:18.384Z,76.46
2019-03-25T09:32:18.369Z,76.09
2019-03-25T09:33:18.376Z,75.84
2019-03-25T09:34:18.478Z,75.36
2019-03-25T09:35:18.340Z,74.81
2019-03-25T09:36:18.376Z,74.81
2019-03-25T09:37:18.409Z,74.60
2019-03-25T09:38:18.459Z,75.22
2019-03-25T09:39:18.402Z,73.88
2019-03-25T09:40:18.465Z,73.77
2019-03-25T09:41:18.340Z,73.57
2019-03-25T09:42:18.390Z,73.33
2019-03-25T09:43:18.297Z,73.02
2019-03-25T09:44:18.486Z,72.19
2019-03-25T09:45:18.257Z,71.22
2019-03-25T09:46:18.318Z,71.33
2019-03-25T09:47:18.271Z,71.84
2019-03-25T09:48:18.290Z,71.33
2019-03-25T09:49:18.183Z,71.12
2019-03-25T09:50:18.197Z,72.05
2019-03-25T09:51:18.195Z,71.33
2019-03-25T09:52:18.223Z,71.30
2019-03-25T09:53:18.847Z,71.09
2019-03-25T09:54:18.187Z,71.02
2019-03-25T09:55:18.218Z,70.81
2019-03-25T09:56:18.222Z,71.30
2019-03-25T09:57:19.536Z,71.19
2019-03-25T09:58:18.137Z,70.37
2019-03-25T09:59:18.129Z,70.54
2019-03-25T10:00:18.133Z,70.64
2019-03-25T10:01:18.110Z,70.37
2019-03-25T10:02:18.149Z,68.30
2019-03-25T10:03:18.049Z,67.68
2019-03-25T10:04:20.139Z,67.99
2019-03-25T10:05:18.019Z,67.88
2019-03-25T10:06:18.003Z,68.19
2019-03-25T10:07:18.049Z,68.51
2019-03-25T10:08:20.851Z,67.99
2019-03-25T10:09:17.969Z,67.96
2019-03-25T10:10:17.963Z,68.78
2019-03-25T10:11:17.953Z,67.03
2019-03-25T10:12:17.958Z,67.30
2019-03-25T10:13:17.989Z,66.79
2019-03-25T10:14:18.109Z,65.86
2019-03-25T10:15:19.221Z,65.83
2019-03-25T10:16:17.915Z,65.73
2019-03-25T10:17:17.951Z,66.11
2019-03-25T10:18:17.910Z,63.53
2019-03-25T10:19:18.218Z,61.85
2019-03-25T10:20:18.172Z,61.54
2019-03-25T10:21:17.868Z,62.40
2019-03-25T10:22:17.847Z,62.92
2019-03-25T10:23:17.825Z,61.57
2019-03-25T10:24:17.849Z,62.84
2019-03-25T10:25:17.809Z,61.78
2019-03-25T10:26:17.786Z,62.50
2019-03-25T10:27:17.771Z,62.63
2019-03-25T10:28:18.352Z,63.35
2019-03-25T10:29:17.761Z,64.28
2019-03-25T10:30:17.766Z,64.28
2019-03-25T10:31:17.734Z,65.42
2019-03-25T10:32:17.783Z,67.69
2019-03-25T10:33:17.709Z,71.16
2019-03-25T10:34:17.717Z,74.95
2019-03-25T10:35:17.725Z,75.91
2019-03-25T10:36:17.685Z,77.91
2019-03-25T10:37:18.340Z,78.67
2019-03-25T10:38:19.697Z,78.88
2019-03-25T10:39:17.672Z,80.05
2019-03-25T10:40:17.743Z,79.02
2019-03-25T10:41:17.638Z,79.23
2019-03-25T10:42:17.674Z,79.54
2019-03-25T10:43:17.598Z,79.30
2019-03-25T10:44:17.593Z,78.26
2019-03-25T10:45:17.582Z,78.47
2019-03-25T10:46:17.583Z,77.84
2019-03-25T10:47:17.576Z,77.91
2019-03-25T10:48:17.541Z,77.19
2019-03-25T10:49:17.582Z,77.05
2019-03-25T10:50:17.521Z,77.56
2019-03-25T10:51:17.558Z,76.60
2019-03-25T10:52:18.508Z,77.33
2019-03-25T10:53:17.490Z,77.08
2019-03-25T10:54:17.628Z,75.19
2019-03-25T10:55:17.467Z,75.09
2019-03-25T10:56:17.472Z,75.09
2019-03-25T10:57:17.483Z,74.36
2019-03-25T10:58:18.363Z,72.81
2019-03-25T10:59:17.480Z,72.61
2019-03-25T11:00:17.454Z,74.43
2019-03-25T11:01:17.505Z,72.99
2019-03-25T11:02:17.417Z,71.20
2019-03-25T11:03:17.388Z,68.82
2019-03-25T11:04:17.374Z,69.65
2019-03-25T11:05:17.378Z,70.27
2019-03-25T11:06:17.444Z,70.13
2019-03-25T11:07:17.410Z,67.55
2019-03-25T11:08:17.344Z,67.55
2019-03-25T11:09:17.363Z,67.24
2019-03-25T11:10:17.366Z,67.00
2019-03-25T11:11:17.404Z,66.60
2019-03-25T11:12:17.288Z,66.80
2019-03-25T11:13:17.513Z,65.02
2019-03-25T11:14:17.302Z,65.12
2019-03-25T11:15:17.308Z,64.29
2019-03-25T11:16:17.306Z,63.45
2019-03-25T11:17:17.266Z,61.69
2019-03-25T11:18:17.265Z,60.66
2019-03-25T11:19:18.091Z,60.25
2019-03-25T11:20:17.231Z,58.32
2019-03-25T11:21:17.204Z,59.84
2019-03-25T11:22:17.205Z,58.60
2019-03-25T11:23:18.965Z,58.29
2019-03-25T11:24:17.157Z,59.33
2019-03-25T11:25:17.933Z,59.42
2019-03-25T11:26:17.141Z,58.81
2019-03-25T11:27:17.129Z,59.12
2019-03-25T11:29:16.225Z,59.33
2019-03-25T11:30:17.136Z,59.33
2019-03-25T11:31:17.085Z,59.22
2019-03-25T11:32:17.080Z,59.22
2019-03-25T11:33:17.100Z,59.33
2019-03-25T11:34:20.416Z,59.33
2019-03-25T11:35:17.042Z,58.29
2019-03-25T11:36:17.032Z,59.74
2019-03-25T11:37:17.017Z,59.50
2019-03-25T11:38:17.063Z,58.98
2019-03-25T11:39:17.078Z,58.47
2019-03-25T11:40:16.977Z,57.21
2019-03-25T11:41:16.989Z,57.96
2019-03-25T11:42:16.974Z,58.26
2019-03-25T11:43:16.977Z,58.54
2019-03-25T11:44:16.964Z,58.75
2019-03-25T11:45:16.934Z,58.45
2019-03-25T11:46:16.931Z,58.26
2019-03-25T11:47:20.182Z,57.86
2019-03-25T11:48:17.473Z,57.34
2019-03-25T11:49:16.895Z,57.44
2019-03-25T11:50:16.980Z,57.44
2019-03-25T11:51:16.925Z,57.86
2019-03-25T11:52:16.845Z,58.47
2019-03-25T11:53:16.893Z,58.68
2019-03-25T11:54:16.848Z,58.50
2019-03-25T11:55:17.799Z,59.01
2019-03-25T11:56:16.832Z,60.15
2019-03-25T11:57:16.818Z,60.05
2019-03-25T11:58:16.842Z,60.12
2019-03-25T11:59:18.794Z,59.09
2019-03-25T12:00:16.768Z,58.68
2019-03-25T12:01:16.752Z,58.37
2019-03-25T12:02:17.809Z,57.96
2019-03-25T12:03:16.755Z,57.37
2019-03-25T12:04:16.727Z,57.78
2019-03-25T12:05:16.768Z,58.09
2019-03-25T12:06:16.730Z,58.29
2019-03-25T12:07:16.696Z,58.40
2019-03-25T12:08:16.690Z,57.65
2019-03-25T12:09:16.685Z,57.24
2019-03-25T12:10:16.801Z,57.34
2019-03-25T12:11:16.724Z,57.65
2019-03-25T12:12:16.639Z,58.26
2019-03-25T12:13:16.619Z,57.62
2019-03-25T12:14:16.618Z,57.42
2019-03-25T12:15:16.888Z,56.77
2019-03-25T12:16:16.701Z,55.93
2019-03-25T12:17:16.582Z,55.72
2019-03-25T12:19:16.509Z,55.62
2019-03-25T12:20:16.584Z,56.02
2019-03-25T12:21:16.594Z,56.13
2019-03-25T12:22:16.528Z,56.02
2019-03-25T12:23:25.755Z,55.82
2019-03-25T12:24:16.515Z,54.69
2019-03-25T12:25:16.487Z,54.69
2019-03-25T12:26:16.491Z,54.07
2019-03-25T12:27:16.497Z,55.30
2019-03-25T12:28:16.457Z,54.28
2019-03-25T12:29:16.460Z,52.43
2019-03-25T12:30:16.474Z,53.25
2019-03-25T12:31:16.432Z,53.66
2019-03-25T12:32:16.407Z,52.94
2019-03-25T12:33:16.399Z,51.81
2019-03-25T12:34:16.417Z,51.92
2019-03-25T12:35:16.381Z,51.50
2019-03-25T12:36:16.412Z,52.53
2019-03-25T12:37:16.367Z,51.71
2019-03-25T12:38:16.390Z,51.81
2019-03-25T12:39:16.364Z,52.66
2019-03-25T12:40:16.334Z,54.10
2019-03-25T12:41:16.306Z,52.25
2019-03-25T12:42:16.332Z,52.25
2019-03-25T12:43:16.294Z,52.66
2019-03-25T12:44:16.275Z,52.86
2019-03-25T12:45:16.290Z,52.76
2019-03-25T12:46:16.262Z,52.53
2019-03-25T12:47:16.245Z,52.97
2019-03-25T12:48:16.258Z,53.15
2019-03-25T12:49:16.224Z,51.61
2019-03-25T12:50:16.215Z,51.71
2019-03-25T12:51:16.198Z,51.37
2019-03-25T12:52:16.193Z,51.58
2019-03-25T12:53:16.178Z,49.91
2019-03-25T12:54:16.196Z,49.30
2019-03-25T12:55:16.155Z,47.86
2019-03-25T12:56:16.147Z,47.34
2019-03-25T12:57:16.793Z,47.04
2019-03-25T12:58:16.130Z,46.30
2019-03-25T12:59:16.130Z,47.12
2019-03-25T13:00:16.147Z,47.12